Time;durP1;ratioP1;P1;durP2;ratioP2;P2;SDS_P1;SDS_P2;PMS_P1;PMS_P2;Temp;Humidity;BMP_temperature;BMP_pressure;BME280_temperature;BME280_humidity;BME280_pressure;Samples;Min_cycle;Max_cycle;Signal;HPM_P1;HPM_P2
2021/07/26 00:02:07;;;;;;;5.55;4.10;;;;;;;;;;4404135;32;20280;-59
2021/07/26 00:04:32;;;;;;;6.18;4.05;;;;;;;;;;4403801;32;20230;-56
2021/07/26 00:06:57;;;;;;;4.37;3.62;;;;;;;;;;4404443;32;20276;-58
2021/07/26 00:09:23;;;;;;;4.62;3.80;;;;;;;;;;4403608;32;20296;-57
2021/07/26 00:11:48;;;;;;;4.55;3.30;;;;;;;;;;4403812;32;20631;-57
2021/07/26 00:14:14;;;;;;;5.50;4.20;;;;;;;;;;4404022;32;20250;-57
2021/07/26 00:16:39;;;;;;;6.68;4.78;;;;;;;;;;4404155;32;20334;-57
2021/07/26 00:19:05;;;;;;;5.47;4.22;;;;;;;;;;4403911;32;20280;-57
2021/07/26 00:21:30;;;;;;;5.22;4.25;;;;;;;;;;4404054;32;20303;-57
2021/07/26 00:23:56;;;;;;;5.75;4.00;;;;;;;;;;4403811;32;20221;-56
2021/07/26 00:26:21;;;;;;;5.53;3.67;;;;;;;;;;4403665;32;20665;-56
2021/07/26 00:28:47;;;;;;;7.68;4.30;;;;;;;;;;4402406;32;20225;-57
2021/07/26 00:31:12;;;;;;;5.20;4.43;;;;;;;;;;4400070;32;20648;-57
2021/07/26 00:34:15;;;;;;;6.57;4.62;;;;;;;;;;4386916;32;20595;-58
2021/07/26 00:36:45;;;;;;;9.88;6.03;;;;;;;;;;4388451;32;20220;-57
2021/07/26 00:39:14;;;;;;;12.13;9.30;;;;;;;;;;4388577;32;20358;-57
2021/07/26 00:41:40;;;;;;;11.55;9.02;;;;;;;;;;4393912;32;20605;-57
2021/07/26 00:44:06;;;;;;;6.43;5.53;;;;;;;;;;4403909;32;20297;-58
2021/07/26 00:46:32;;;;;;;8.43;5.55;;;;;;;;;;4403602;32;20293;-57
2021/07/26 00:48:58;;;;;;;7.05;4.72;;;;;;;;;;4403516;32;20213;-58
2021/07/26 00:51:23;;;;;;;7.12;5.28;;;;;;;;;;4403646;32;20268;-58
2021/07/26 00:53:49;;;;;;;7.28;4.85;;;;;;;;;;4403156;32;20302;-58
2021/07/26 00:56:15;;;;;;;7.00;5.00;;;;;;;;;;4403765;32;20482;-58
2021/07/26 00:58:42;;;;;;;7.90;5.15;;;;;;;;;;4403233;32;20640;-58
2021/07/26 01:01:09;;;;;;;6.40;4.05;;;;;;;;;;4403051;32;20352;-58
2021/07/26 01:03:34;;;;;;;10.02;5.03;;;;;;;;;;4403085;32;20229;-57
2021/07/26 01:06:00;;;;;;;5.93;4.68;;;;;;;;;;4403155;32;20314;-57
2021/07/26 01:08:25;;;;;;;6.47;4.40;;;;;;;;;;4403264;32;20496;-58
2021/07/26 01:10:50;;;;;;;7.40;4.75;;;;;;;;;;4402944;32;20304;-57
2021/07/26 01:13:16;;;;;;;8.10;4.90;;;;;;;;;;4402891;32;20264;-57
2021/07/26 01:15:42;;;;;;;9.35;5.32;;;;;;;;;;4402897;32;20475;-57
2021/07/26 01:18:23;;;;;;;5.93;4.72;;;;;;;;;;4403134;32;20278;-57
2021/07/26 01:21:03;;;;;;;6.22;4.47;;;;;;;;;;4404469;32;20236;-57
2021/07/26 01:23:30;;;;;;;6.62;4.35;;;;;;;;;;4406420;32;20318;-57
2021/07/26 01:25:57;;;;;;;7.15;4.82;;;;;;;;;;4404840;32;20225;-57
2021/07/26 01:28:25;;;;;;;5.18;4.22;;;;;;;;;;4405972;32;20251;-57
2021/07/26 01:30:51;;;;;;;5.75;4.35;;;;;;;;;;4404693;32;20256;-58
2021/07/26 01:33:18;;;;;;;5.07;4.25;;;;;;;;;;4389670;32;20276;-57
2021/07/26 01:35:44;;;;;;;11.43;9.88;;;;;;;;;;4390884;32;20210;-57
2021/07/26 01:38:10;;;;;;;13.62;11.27;;;;;;;;;;4391013;32;20480;-58
2021/07/26 01:40:39;;;;;;;7.28;6.25;;;;;;;;;;4376912;32;20388;-58
2021/07/26 01:43:06;;;;;;;7.05;6.28;;;;;;;;;;4405218;32;20566;-57
2021/07/26 01:45:32;;;;;;;8.70;5.68;;;;;;;;;;4406114;32;20292;-58
2021/07/26 01:48:14;;;;;;;8.98;5.05;;;;;;;;;;4406034;32;20276;-57
2021/07/26 01:50:59;;;;;;;8.10;5.00;;;;;;;;;;4391153;32;20574;-58
2021/07/26 01:53:25;;;;;;;7.65;5.22;;;;;;;;;;4398501;32;20323;-58
2021/07/26 01:55:50;;;;;;;7.07;5.15;;;;;;;;;;4406179;32;20288;-59
2021/07/26 01:58:16;;;;;;;7.00;4.87;;;;;;;;;;4404649;32;20228;-58
2021/07/26 02:00:41;;;;;;;6.40;4.82;;;;;;;;;;4405831;32;20303;-58
2021/07/26 02:03:07;;;;;;;8.23;5.35;;;;;;;;;;4405697;32;20217;-58
2021/07/26 02:05:33;;;;;;;7.65;4.40;;;;;;;;;;4405751;32;20681;-58
2021/07/26 02:07:58;;;;;;;6.03;4.35;;;;;;;;;;4406132;32;20361;-57
2021/07/26 02:10:24;;;;;;;8.45;4.43;;;;;;;;;;4406119;32;20247;-57
2021/07/26 02:12:49;;;;;;;5.50;4.50;;;;;;;;;;4405215;32;20307;-57
2021/07/26 02:15:15;;;;;;;5.25;4.45;;;;;;;;;;4404664;32;20320;-57
2021/07/26 02:17:40;;;;;;;7.40;4.37;;;;;;;;;;4405538;32;20318;-57
2021/07/26 02:20:06;;;;;;;6.93;4.82;;;;;;;;;;4405312;32;20369;-57
2021/07/26 02:22:32;;;;;;;5.18;4.03;;;;;;;;;;4405785;32;20319;-57
2021/07/26 02:24:58;;;;;;;5.15;4.18;;;;;;;;;;4405593;32;20217;-57
2021/07/26 02:27:23;;;;;;;5.80;4.25;;;;;;;;;;4405638;32;20268;-57
2021/07/26 02:29:50;;;;;;;5.62;4.80;;;;;;;;;;4405563;32;20229;-56
2021/07/26 02:32:15;;;;;;;5.10;3.95;;;;;;;;;;4394516;32;20287;-56
2021/07/26 02:34:41;;;;;;;6.03;5.10;;;;;;;;;;4388587;32;20320;-56
2021/07/26 02:37:06;;;;;;;9.27;4.45;;;;;;;;;;4390637;32;20281;-57
2021/07/26 02:39:32;;;;;;;6.05;4.57;;;;;;;;;;4390334;32;20217;-57
2021/07/26 02:41:58;;;;;;;6.80;4.57;;;;;;;;;;4397296;32;20281;-57
2021/07/26 02:44:23;;;;;;;4.20;3.80;;;;;;;;;;4404327;32;20237;-57
2021/07/26 02:46:49;;;;;;;6.53;4.18;;;;;;;;;;4404938;32;20757;-59
2021/07/26 02:49:14;;;;;;;6.32;4.60;;;;;;;;;;4405064;32;20272;-57
2021/07/26 02:51:39;;;;;;;6.90;4.53;;;;;;;;;;4404945;32;20299;-57
2021/07/26 02:54:05;;;;;;;4.45;3.62;;;;;;;;;;4405229;32;20280;-57
2021/07/26 02:56:30;;;;;;;8.10;4.30;;;;;;;;;;4405046;32;20793;-57
2021/07/26 02:58:56;;;;;;;5.45;4.20;;;;;;;;;;4405318;32;20593;-57
2021/07/26 03:01:21;;;;;;;5.43;4.60;;;;;;;;;;4405179;32;20311;-56
2021/07/26 03:03:47;;;;;;;7.82;4.30;;;;;;;;;;4404547;32;20225;-57
2021/07/26 03:06:17;;;;;;;5.57;4.45;;;;;;;;;;4404888;32;20644;-57
2021/07/26 03:08:43;;;;;;;5.53;4.62;;;;;;;;;;4403828;32;20666;-56
2021/07/26 03:11:12;;;;;;;5.37;4.50;;;;;;;;;;4404764;32;20256;-56
2021/07/26 03:13:39;;;;;;;8.23;5.30;;;;;;;;;;4403444;32;20245;-57
2021/07/26 03:16:10;;;;;;;10.15;5.55;;;;;;;;;;4404646;32;20205;-57
2021/07/26 03:18:35;;;;;;;8.27;4.65;;;;;;;;;;4405003;32;20344;-57
2021/07/26 03:21:02;;;;;;;4.37;3.83;;;;;;;;;;4404689;32;20308;-58
2021/07/26 03:23:28;;;;;;;8.13;4.80;;;;;;;;;;4404631;32;20616;-58
2021/07/26 03:25:54;;;;;;;7.53;5.12;;;;;;;;;;4402975;32;20376;-59
2021/07/26 03:28:19;;;;;;;4.93;4.43;;;;;;;;;;4404412;32;20267;-57
2021/07/26 03:30:45;;;;;;;7.68;5.07;;;;;;;;;;4403965;32;20276;-58
2021/07/26 03:33:11;;;;;;;7.25;4.78;;;;;;;;;;4389270;32;20556;-57
2021/07/26 03:35:37;;;;;;;5.40;4.35;;;;;;;;;;4389243;32;20272;-57
2021/07/26 03:38:05;;;;;;;6.68;4.97;;;;;;;;;;4389694;32;20240;-57
2021/07/26 03:40:31;;;;;;;6.72;4.87;;;;;;;;;;4389416;32;20273;-57
2021/07/26 03:42:56;;;;;;;6.15;4.30;;;;;;;;;;4402167;32;20307;-57
2021/07/26 03:45:22;;;;;;;5.97;4.82;;;;;;;;;;4403169;32;20752;-57
2021/07/26 03:47:48;;;;;;;6.43;4.45;;;;;;;;;;4403933;32;20281;-57
2021/07/26 03:50:15;;;;;;;10.07;5.22;;;;;;;;;;4403019;32;20622;-57
2021/07/26 03:52:43;;;;;;;6.05;5.18;;;;;;;;;;4404354;32;20285;-58
2021/07/26 03:55:09;;;;;;;6.53;4.70;;;;;;;;;;4404902;32;20407;-59
2021/07/26 03:57:35;;;;;;;8.27;5.00;;;;;;;;;;4404275;32;20268;-57
2021/07/26 04:00:00;;;;;;;6.62;4.62;;;;;;;;;;4403932;32;20350;-57
2021/07/26 04:02:26;;;;;;;11.48;5.68;;;;;;;;;;4404418;32;20346;-57
2021/07/26 04:04:51;;;;;;;5.45;4.55;;;;;;;;;;4404131;32;20573;-57
2021/07/26 04:07:23;;;;;;;8.02;5.35;;;;;;;;;;4403916;32;20349;-57
2021/07/26 04:09:53;;;;;;;7.72;5.10;;;;;;;;;;4390709;32;20260;-57
2021/07/26 04:12:23;;;;;;;6.78;4.93;;;;;;;;;;4404349;32;20220;-56
2021/07/26 04:14:49;;;;;;;7.12;5.00;;;;;;;;;;4404167;32;20344;-57
2021/07/26 04:17:14;;;;;;;13.55;5.47;;;;;;;;;;4404399;32;20310;-57
2021/07/26 04:19:40;;;;;;;12.45;5.82;;;;;;;;;;4403858;32;20240;-57
2021/07/26 04:22:05;;;;;;;7.05;4.72;;;;;;;;;;4404150;32;20268;-57
2021/07/26 04:24:31;;;;;;;11.90;6.22;;;;;;;;;;4404135;32;20326;-57
2021/07/26 04:26:56;;;;;;;7.75;5.53;;;;;;;;;;4403843;32;20307;-57
2021/07/26 04:29:22;;;;;;;7.47;5.10;;;;;;;;;;4404115;32;20217;-56
2021/07/26 04:31:48;;;;;;;8.65;5.75;;;;;;;;;;4395083;32;20296;-58
2021/07/26 04:34:13;;;;;;;7.87;5.68;;;;;;;;;;4388643;32;20213;-57
2021/07/26 04:36:39;;;;;;;13.57;6.65;;;;;;;;;;4388965;32;20256;-57
2021/07/26 04:39:04;;;;;;;10.45;6.28;;;;;;;;;;4401794;32;20295;-57
2021/07/26 04:41:32;;;;;;;8.00;6.22;;;;;;;;;;4398789;32;20756;-57
2021/07/26 04:43:57;;;;;;;9.35;5.50;;;;;;;;;;4388430;32;20228;-56
2021/07/26 04:46:23;;;;;;;10.00;5.53;;;;;;;;;;4388916;32;20253;-57
2021/07/26 04:48:48;;;;;;;10.55;5.40;;;;;;;;;;4387122;32;20237;-57
2021/07/26 04:51:14;;;;;;;6.53;5.70;;;;;;;;;;4388632;32;20724;-57
2021/07/26 04:53:39;;;;;;;9.73;6.15;;;;;;;;;;4388464;32;20566;-57
2021/07/26 04:56:05;;;;;;;8.68;5.18;;;;;;;;;;4386787;32;20319;-57
2021/07/26 04:58:31;;;;;;;8.05;5.37;;;;;;;;;;4388614;32;20285;-57
2021/07/26 05:00:56;;;;;;;13.27;6.50;;;;;;;;;;4388342;32;20608;-57
2021/07/26 05:03:21;;;;;;;12.15;6.28;;;;;;;;;;4388268;32;20209;-57
2021/07/26 05:05:47;;;;;;;9.55;6.10;;;;;;;;;;4388178;32;20719;-57
2021/07/26 05:08:12;;;;;;;7.60;5.28;;;;;;;;;;4388045;32;20318;-57
2021/07/26 05:10:39;;;;;;;11.63;6.28;;;;;;;;;;4387738;32;20720;-57
2021/07/26 05:13:05;;;;;;;11.75;5.62;;;;;;;;;;4394289;32;20728;-58
2021/07/26 05:15:30;;;;;;;16.80;6.35;;;;;;;;;;4403302;32;20298;-58
2021/07/26 05:17:56;;;;;;;12.43;6.40;;;;;;;;;;4402694;32;20277;-57
2021/07/26 05:20:21;;;;;;;12.90;5.68;;;;;;;;;;4402576;32;20284;-57
2021/07/26 05:22:47;;;;;;;6.43;5.43;;;;;;;;;;4401673;32;20300;-57
2021/07/26 05:25:12;;;;;;;7.05;5.50;;;;;;;;;;4402645;32;20287;-57
2021/07/26 05:27:38;;;;;;;9.85;6.37;;;;;;;;;;4401712;32;20331;-57
2021/07/26 05:30:04;;;;;;;10.85;6.72;;;;;;;;;;4403373;32;20621;-57
2021/07/26 05:32:30;;;;;;;8.02;6.00;;;;;;;;;;4391433;32;20273;-58
2021/07/26 05:34:55;;;;;;;8.23;6.20;;;;;;;;;;4398277;32;20682;-58
2021/07/26 05:37:21;;;;;;;11.12;7.32;;;;;;;;;;4403304;32;20293;-57
2021/07/26 05:39:46;;;;;;;13.35;6.45;;;;;;;;;;4401403;32;20279;-57
2021/07/26 05:42:12;;;;;;;10.82;7.18;;;;;;;;;;4400266;32;20312;-57
2021/07/26 05:44:39;;;;;;;10.48;6.62;;;;;;;;;;4401765;32;20558;-57
2021/07/26 05:47:05;;;;;;;10.73;7.05;;;;;;;;;;4402243;32;20235;-57
2021/07/26 05:49:30;;;;;;;8.65;6.57;;;;;;;;;;4400785;32;20237;-58
2021/07/26 05:51:56;;;;;;;9.80;6.65;;;;;;;;;;4401265;32;20272;-57
2021/07/26 05:54:21;;;;;;;12.27;6.72;;;;;;;;;;4401283;32;20305;-57
2021/07/26 05:56:48;;;;;;;12.35;6.32;;;;;;;;;;4402731;32;20351;-56
2021/07/26 05:59:18;;;;;;;8.82;7.12;;;;;;;;;;4402476;32;20280;-57
2021/07/26 06:01:47;;;;;;;9.05;5.60;;;;;;;;;;4397311;32;20243;-57
2021/07/26 06:04:20;;;;;;;9.40;7.15;;;;;;;;;;4403181;32;20535;-57
2021/07/26 06:06:47;;;;;;;19.17;7.00;;;;;;;;;;4402599;32;20804;-58
2021/07/26 06:09:13;;;;;;;14.77;7.00;;;;;;;;;;4405859;32;20294;-58
2021/07/26 06:11:39;;;;;;;8.52;5.80;;;;;;;;;;4405697;32;20237;-57
2021/07/26 06:14:06;;;;;;;8.77;6.53;;;;;;;;;;4405869;32;20440;-57
2021/07/26 06:16:32;;;;;;;9.57;7.05;;;;;;;;;;4405623;32;20313;-57
2021/07/26 06:18:59;;;;;;;10.90;5.93;;;;;;;;;;4405835;32;20547;-56
2021/07/26 06:21:26;;;;;;;10.48;7.57;;;;;;;;;;4404383;32;20643;-57
2021/07/26 06:23:51;;;;;;;6.53;5.85;;;;;;;;;;4400967;32;20281;-57
2021/07/26 06:26:16;;;;;;;8.65;6.70;;;;;;;;;;4395827;32;20269;-56
2021/07/26 06:28:42;;;;;;;11.43;6.47;;;;;;;;;;4400790;32;20266;-58
2021/07/26 06:31:08;;;;;;;9.63;6.43;;;;;;;;;;4403006;32;20316;-57
2021/07/26 06:33:33;;;;;;;9.20;5.87;;;;;;;;;;4404762;32;20320;-57
2021/07/26 06:36:02;;;;;;;12.68;7.18;;;;;;;;;;4405684;32;20265;-58
2021/07/26 06:38:28;;;;;;;8.38;6.28;;;;;;;;;;4403603;32;20213;-57
2021/07/26 06:40:54;;;;;;;8.45;5.28;;;;;;;;;;4404136;32;20731;-57
2021/07/26 06:43:19;;;;;;;11.25;5.78;;;;;;;;;;4404999;32;20210;-57
2021/07/26 06:45:45;;;;;;;8.02;5.75;;;;;;;;;;4405292;32;20253;-57
2021/07/26 06:48:10;;;;;;;8.50;6.28;;;;;;;;;;4405110;32;20652;-58
2021/07/26 06:50:38;;;;;;;7.12;5.50;;;;;;;;;;4405129;32;20577;-58
2021/07/26 06:53:04;;;;;;;23.58;6.20;;;;;;;;;;4405174;32;20296;-56
2021/07/26 06:55:30;;;;;;;11.60;5.60;;;;;;;;;;4405019;32;20273;-59
2021/07/26 06:57:55;;;;;;;15.73;6.20;;;;;;;;;;4404944;32;20609;-57
2021/07/26 07:00:21;;;;;;;14.23;5.78;;;;;;;;;;4404832;32;20292;-57
2021/07/26 07:02:47;;;;;;;16.77;6.28;;;;;;;;;;4404719;32;20286;-57
2021/07/26 07:05:12;;;;;;;7.70;5.50;;;;;;;;;;4404883;32;20283;-57
2021/07/26 07:07:38;;;;;;;8.20;5.70;;;;;;;;;;4403711;32;20309;-56
2021/07/26 07:10:03;;;;;;;8.00;5.82;;;;;;;;;;4405063;32;20240;-57
2021/07/26 07:12:29;;;;;;;9.45;5.70;;;;;;;;;;4402461;32;20239;-57
2021/07/26 07:14:54;;;;;;;7.07;5.47;;;;;;;;;;4390207;32;20253;-57
2021/07/26 07:17:20;;;;;;;7.70;5.68;;;;;;;;;;4389998;32;20265;-57
2021/07/26 07:19:48;;;;;;;9.13;6.07;;;;;;;;;;4389471;32;20302;-58
2021/07/26 07:22:18;;;;;;;9.20;6.20;;;;;;;;;;4389659;32;20209;-57
2021/07/26 07:24:44;;;;;;;6.12;5.25;;;;;;;;;;4389516;32;20639;-58
2021/07/26 07:27:09;;;;;;;12.77;6.43;;;;;;;;;;4398854;32;20303;-58
2021/07/26 07:29:35;;;;;;;6.68;5.57;;;;;;;;;;4404836;32;20248;-58
2021/07/26 07:32:02;;;;;;;6.20;5.53;;;;;;;;;;4397969;32;20277;-58
2021/07/26 07:34:27;;;;;;;8.00;6.10;;;;;;;;;;4404520;32;20225;-58
2021/07/26 07:36:54;;;;;;;9.05;6.35;;;;;;;;;;4404654;32;20277;-58
2021/07/26 07:39:19;;;;;;;7.70;5.78;;;;;;;;;;4404746;32;20229;-57
2021/07/26 07:41:45;;;;;;;8.77;5.80;;;;;;;;;;4403850;32;20365;-58
2021/07/26 07:44:10;;;;;;;8.32;5.60;;;;;;;;;;4404633;32;20542;-58
2021/07/26 07:46:36;;;;;;;7.07;5.60;;;;;;;;;;4404148;32;20260;-57
2021/07/26 07:49:01;;;;;;;9.15;5.65;;;;;;;;;;4404432;32;20292;-58
2021/07/26 07:51:27;;;;;;;7.72;5.57;;;;;;;;;;4401065;32;20832;-58
2021/07/26 07:53:53;;;;;;;8.90;5.55;;;;;;;;;;4402732;32;20225;-58
2021/07/26 07:56:19;;;;;;;9.63;6.05;;;;;;;;;;4404234;32;20285;-58
2021/07/26 07:58:49;;;;;;;8.68;6.05;;;;;;;;;;4401636;32;20326;-58
2021/07/26 08:01:14;;;;;;;7.75;5.62;;;;;;;;;;4399796;32;20279;-58
2021/07/26 08:03:40;;;;;;;9.38;6.20;;;;;;;;;;4404191;32;20329;-58
2021/07/26 08:06:05;;;;;;;6.45;5.18;;;;;;;;;;4403543;32;20321;-58
2021/07/26 08:08:31;;;;;;;7.18;6.10;;;;;;;;;;4403768;32;20757;-58
2021/07/26 08:10:56;;;;;;;6.90;5.87;;;;;;;;;;4404208;32;20545;-58
2021/07/26 08:13:23;;;;;;;6.95;5.75;;;;;;;;;;4394444;32;20571;-58
2021/07/26 08:15:51;;;;;;;9.57;6.28;;;;;;;;;;4388391;32;20255;-57
2021/07/26 08:18:17;;;;;;;10.27;6.28;;;;;;;;;;4388513;32;20694;-57
2021/07/26 08:20:43;;;;;;;14.27;6.55;;;;;;;;;;4388593;32;20326;-58
2021/07/26 08:23:08;;;;;;;9.90;5.80;;;;;;;;;;4387810;32;20611;-57
2021/07/26 08:25:34;;;;;;;7.28;6.12;;;;;;;;;;4403430;32;20269;-57
2021/07/26 08:27:59;;;;;;;9.48;5.72;;;;;;;;;;4404242;32;20257;-57
2021/07/26 08:30:30;;;;;;;6.97;5.22;;;;;;;;;;4403033;32;20276;-58
2021/07/26 08:32:57;;;;;;;9.35;5.87;;;;;;;;;;4401701;32;20571;-58
2021/07/26 08:35:23;;;;;;;9.05;5.57;;;;;;;;;;4403979;32;20302;-58
2021/07/26 08:37:49;;;;;;;9.38;6.22;;;;;;;;;;4403774;32;20793;-57
2021/07/26 08:40:15;;;;;;;6.80;5.60;;;;;;;;;;4403237;32;20322;-58
2021/07/26 08:42:41;;;;;;;9.05;6.53;;;;;;;;;;4403916;32;20269;-58
2021/07/26 08:45:10;;;;;;;8.20;6.43;;;;;;;;;;4403084;32;20359;-58
2021/07/26 08:47:41;;;;;;;6.62;5.28;;;;;;;;;;4403256;32;20569;-58
2021/07/26 08:50:08;;;;;;;8.52;6.40;;;;;;;;;;4403405;32;20275;-58
2021/07/26 08:52:38;;;;;;;12.52;6.10;;;;;;;;;;4403598;32;20228;-58
2021/07/26 08:55:04;;;;;;;8.48;6.75;;;;;;;;;;4403055;32;20622;-56
2021/07/26 08:57:30;;;;;;;9.75;6.55;;;;;;;;;;4400187;32;20384;-57
2021/07/26 08:59:56;;;;;;;9.02;6.35;;;;;;;;;;4392054;32;20217;-56
2021/07/26 09:02:22;;;;;;;16.27;6.57;;;;;;;;;;4403437;32;20423;-56
2021/07/26 09:04:47;;;;;;;8.90;6.75;;;;;;;;;;4403272;32;20222;-57
2021/07/26 09:07:23;;;;;;;10.70;6.60;;;;;;;;;;4401342;32;20296;-58
2021/07/26 09:09:49;;;;;;;13.82;5.95;;;;;;;;;;4402734;32;20352;-57
2021/07/26 09:12:36;;;;;;;16.12;5.90;;;;;;;;;;4400174;32;20285;-57
2021/07/26 09:15:04;;;;;;;15.38;6.65;;;;;;;;;;4387881;32;20379;-57
2021/07/26 09:17:38;;;;;;;11.73;4.87;;;;;;;;;;4384401;32;20710;-57
2021/07/26 09:20:04;;;;;;;11.25;5.95;;;;;;;;;;4385449;32;20328;-57
2021/07/26 09:22:31;;;;;;;7.12;5.93;;;;;;;;;;4386105;32;20307;-58
2021/07/26 09:25:19;;;;;;;7.07;5.93;;;;;;;;;;4386094;32;20225;-57
2021/07/26 09:28:12;;;;;;;7.05;5.95;;;;;;;;;;4387646;32;20464;-57
2021/07/26 09:30:41;;;;;;;11.70;6.50;;;;;;;;;;4383392;32;20653;-57
2021/07/26 09:33:17;;;;;;;9.50;6.75;;;;;;;;;;4400549;32;20233;-58
2021/07/26 09:35:44;;;;;;;13.27;6.60;;;;;;;;;;4402260;32;20233;-57
2021/07/26 09:38:10;;;;;;;9.55;6.35;;;;;;;;;;4402297;32;20316;-57
2021/07/26 09:40:36;;;;;;;9.40;7.03;;;;;;;;;;4391626;32;20250;-58
2021/07/26 09:43:18;;;;;;;9.45;5.87;;;;;;;;;;4390209;32;20379;-57
2021/07/26 09:45:44;;;;;;;7.43;5.12;;;;;;;;;;4390227;32;20206;-57
2021/07/26 09:48:13;;;;;;;13.52;6.45;;;;;;;;;;4390547;32;20641;-58
2021/07/26 09:50:44;;;;;;;8.35;5.78;;;;;;;;;;4390844;32;20250;-57
2021/07/26 09:53:15;;;;;;;12.57;7.10;;;;;;;;;;4390583;32;20293;-57
2021/07/26 09:55:43;;;;;;;7.70;5.97;;;;;;;;;;4390753;32;20228;-57
2021/07/26 09:58:11;;;;;;;14.45;7.15;;;;;;;;;;4390318;32;20309;-57
2021/07/26 10:00:39;;;;;;;8.05;6.07;;;;;;;;;;4389047;32;20209;-57
2021/07/26 10:03:10;;;;;;;7.07;6.28;;;;;;;;;;4390362;32;20340;-58
2021/07/26 10:05:37;;;;;;;6.60;5.68;;;;;;;;;;4390261;32;20305;-57
2021/07/26 10:08:03;;;;;;;8.93;5.85;;;;;;;;;;4390385;32;20293;-57
2021/07/26 10:10:32;;;;;;;8.23;7.03;;;;;;;;;;4401552;32;20264;-57
2021/07/26 10:12:58;;;;;;;10.93;6.40;;;;;;;;;;4389223;32;20214;-56
2021/07/26 10:15:27;;;;;;;7.32;6.00;;;;;;;;;;4390260;32;20337;-56
2021/07/26 10:17:52;;;;;;;9.00;5.90;;;;;;;;;;4390305;32;20489;-57
2021/07/26 10:20:30;;;;;;;8.32;7.45;;;;;;;;;;4389995;32;20295;-57
2021/07/26 10:23:03;;;;;;;8.23;6.28;;;;;;;;;;4390183;32;20450;-57
2021/07/26 10:25:36;;;;;;;6.85;5.90;;;;;;;;;;4390408;32;20224;-57
2021/07/26 10:28:07;;;;;;;8.65;6.78;;;;;;;;;;4389794;32;20811;-57
2021/07/26 10:30:35;;;;;;;7.65;5.65;;;;;;;;;;4390592;32;20204;-57
2021/07/26 10:33:02;;;;;;;9.05;6.47;;;;;;;;;;4386567;32;20230;-57
2021/07/26 10:35:38;;;;;;;8.05;6.03;;;;;;;;;;4389572;32;20240;-56
2021/07/26 10:38:05;;;;;;;9.88;6.50;;;;;;;;;;4389842;32;20260;-57
2021/07/26 10:40:41;;;;;;;8.32;6.43;;;;;;;;;;4389583;32;20238;-57
2021/07/26 10:43:13;;;;;;;9.85;6.37;;;;;;;;;;4390331;32;20225;-58
2021/07/26 10:45:50;;;;;;;9.13;7.87;;;;;;;;;;4389867;32;20186;-57
2021/07/26 10:48:22;;;;;;;8.52;6.80;;;;;;;;;;4389453;32;20283;-57
2021/07/26 10:50:51;;;;;;;8.13;6.18;;;;;;;;;;4389354;32;20272;-58
2021/07/26 10:53:32;;;;;;;12.15;6.37;;;;;;;;;;4388205;32;20474;-57
2021/07/26 10:56:05;;;;;;;10.40;6.85;;;;;;;;;;4389465;32;20296;-58
2021/07/26 10:58:39;;;;;;;12.23;6.30;;;;;;;;;;4388527;32;20337;-58
2021/07/26 11:01:20;;;;;;;16.92;6.95;;;;;;;;;;4388763;32;20331;-58
2021/07/26 11:03:49;;;;;;;8.45;6.85;;;;;;;;;;4388370;32;20376;-58
2021/07/26 11:06:35;;;;;;;12.40;6.78;;;;;;;;;;4388353;32;20210;-58
2021/07/26 11:09:21;;;;;;;18.48;6.85;;;;;;;;;;4384943;32;20241;-58
2021/07/26 11:11:53;;;;;;;10.98;6.80;;;;;;;;;;4387972;32;20236;-58
2021/07/26 11:14:20;;;;;;;11.93;7.32;;;;;;;;;;4374101;32;20283;-58
2021/07/26 11:17:08;;;;;;;8.60;6.57;;;;;;;;;;4373782;32;20285;-58
2021/07/26 11:19:49;;;;;;;11.52;7.07;;;;;;;;;;4382750;32;20245;-57
2021/07/26 11:22:15;;;;;;;8.20;6.80;;;;;;;;;;4388405;32;20302;-57
2021/07/26 11:24:40;;;;;;;10.30;7.87;;;;;;;;;;4388659;32;20532;-57
2021/07/26 11:27:06;;;;;;;8.82;6.50;;;;;;;;;;4388670;32;20292;-57
2021/07/26 11:29:32;;;;;;;9.20;6.70;;;;;;;;;;4389085;32;20346;-57
2021/07/26 11:31:58;;;;;;;7.87;6.35;;;;;;;;;;4383964;32;20269;-58
2021/07/26 11:34:28;;;;;;;7.87;6.20;;;;;;;;;;4387362;32;20238;-57
2021/07/26 11:37:09;;;;;;;9.43;6.00;;;;;;;;;;4387313;32;20252;-58
2021/07/26 11:39:50;;;;;;;9.90;6.57;;;;;;;;;;4388374;32;20255;-57
2021/07/26 11:42:30;;;;;;;8.85;6.25;;;;;;;;;;4388190;32;20612;-57
2021/07/26 11:44:56;;;;;;;11.15;6.30;;;;;;;;;;4387903;32;20234;-57
2021/07/26 11:47:34;;;;;;;6.35;5.25;;;;;;;;;;4387997;32;20280;-58
2021/07/26 11:50:02;;;;;;;6.47;5.65;;;;;;;;;;4388489;32;20458;-57
2021/07/26 11:52:27;;;;;;;6.35;5.65;;;;;;;;;;4388100;32;20218;-57
2021/07/26 11:54:53;;;;;;;9.02;6.22;;;;;;;;;;4388419;32;20315;-57
2021/07/26 11:57:18;;;;;;;6.75;6.12;;;;;;;;;;4387373;32;20427;-57
2021/07/26 11:59:52;;;;;;;8.38;6.47;;;;;;;;;;4359855;32;20238;-57
2021/07/26 12:02:24;;;;;;;6.70;5.40;;;;;;;;;;4371898;32;20678;-57
2021/07/26 12:04:49;;;;;;;7.65;5.50;;;;;;;;;;4373358;32;20318;-57
2021/07/26 12:07:15;;;;;;;11.65;5.40;;;;;;;;;;4373132;32;20303;-57
2021/07/26 12:09:50;;;;;;;9.50;6.15;;;;;;;;;;4373126;32;20571;-58
2021/07/26 12:12:17;;;;;;;7.80;5.87;;;;;;;;;;4373037;32;20303;-58
2021/07/26 12:14:45;;;;;;;8.45;5.65;;;;;;;;;;4372327;32;20333;-58
2021/07/26 12:17:24;;;;;;;12.10;5.70;;;;;;;;;;4369852;32;20246;-57
2021/07/26 12:20:01;;;;;;;7.93;5.30;;;;;;;;;;4381448;32;20228;-57
2021/07/26 12:22:38;;;;;;;8.75;5.85;;;;;;;;;;4382230;32;20701;-57
2021/07/26 12:25:17;;;;;;;7.82;5.28;;;;;;;;;;4370469;32;20627;-57
2021/07/26 12:27:53;;;;;;;9.20;5.80;;;;;;;;;;4382932;32;20599;-58
2021/07/26 12:30:18;;;;;;;7.80;5.65;;;;;;;;;;4386462;32;20278;-58
2021/07/26 12:32:49;;;;;;;11.55;5.68;;;;;;;;;;4387756;32;20637;-57
2021/07/26 12:35:21;;;;;;;9.20;5.53;;;;;;;;;;4388003;32;20570;-58
2021/07/26 12:38:16;;;;;;;8.52;5.78;;;;;;;;;;4387935;32;20198;-58
2021/07/26 12:41:10;;;;;;;9.73;6.25;;;;;;;;;;4388274;32;20297;-58
2021/07/26 12:43:37;;;;;;;8.52;5.12;;;;;;;;;;4394173;32;20258;-57
2021/07/26 12:46:08;;;;;;;9.23;5.75;;;;;;;;;;4403149;32;20229;-57
2021/07/26 12:48:34;;;;;;;8.05;5.37;;;;;;;;;;4402843;32;20333;-56
2021/07/26 12:51:04;;;;;;;12.35;5.80;;;;;;;;;;4402905;32;20253;-57
2021/07/26 12:53:29;;;;;;;11.43;5.87;;;;;;;;;;4403051;32;20278;-57
2021/07/26 12:55:56;;;;;;;5.65;5.05;;;;;;;;;;4403235;32;20265;-57
2021/07/26 12:58:23;;;;;;;7.97;6.03;;;;;;;;;;4388082;32;20230;-57
2021/07/26 13:00:49;;;;;;;7.72;5.35;;;;;;;;;;4387550;32;20605;-57
2021/07/26 13:03:17;;;;;;;8.32;5.78;;;;;;;;;;4387622;32;20241;-58
2021/07/26 13:05:44;;;;;;;6.50;5.20;;;;;;;;;;4386241;32;20340;-57
2021/07/26 13:08:11;;;;;;;6.22;4.20;;;;;;;;;;4387330;32;20241;-57
2021/07/26 13:10:38;;;;;;;9.43;6.05;;;;;;;;;;4387341;32;20654;-57
2021/07/26 13:13:08;;;;;;;6.87;5.45;;;;;;;;;;4387551;32;20221;-58
2021/07/26 13:15:38;;;;;;;8.65;5.80;;;;;;;;;;4386132;32;20257;-58
2021/07/26 13:18:05;;;;;;;10.40;5.00;;;;;;;;;;4387700;32;20555;-57
2021/07/26 13:20:30;;;;;;;7.85;5.65;;;;;;;;;;4387225;32;20217;-57
2021/07/26 13:22:56;;;;;;;9.50;5.55;;;;;;;;;;4387237;32;20315;-57
2021/07/26 13:25:22;;;;;;;7.80;5.72;;;;;;;;;;4386989;32;20367;-58
2021/07/26 13:27:47;;;;;;;8.15;5.55;;;;;;;;;;4387705;32;20579;-58
2021/07/26 13:30:14;;;;;;;11.77;6.53;;;;;;;;;;4385806;32;20300;-58
2021/07/26 13:32:39;;;;;;;7.78;5.93;;;;;;;;;;4387591;32;20229;-57
2021/07/26 13:35:05;;;;;;;9.38;6.18;;;;;;;;;;4387202;32;20756;-58
2021/07/26 13:37:33;;;;;;;7.93;6.10;;;;;;;;;;4387339;32;20349;-59
2021/07/26 13:39:59;;;;;;;9.52;5.95;;;;;;;;;;4387054;32;20299;-59
2021/07/26 13:42:25;;;;;;;15.68;5.22;;;;;;;;;;4385990;32;20312;-59
2021/07/26 13:44:51;;;;;;;12.68;6.15;;;;;;;;;;4387519;32;20245;-57
2021/07/26 13:47:17;;;;;;;8.10;5.60;;;;;;;;;;4387438;32;20304;-58
2021/07/26 13:49:42;;;;;;;12.95;5.97;;;;;;;;;;4387416;32;20278;-57
2021/07/26 13:52:08;;;;;;;7.62;5.60;;;;;;;;;;4387544;32;20284;-58
2021/07/26 13:54:34;;;;;;;9.00;6.00;;;;;;;;;;4387365;32;20230;-58
2021/07/26 13:57:01;;;;;;;14.20;6.28;;;;;;;;;;4380063;32;20226;-58
2021/07/26 13:59:26;;;;;;;6.97;5.50;;;;;;;;;;4385580;32;20255;-58
2021/07/26 14:01:52;;;;;;;10.48;5.60;;;;;;;;;;4388043;32;20320;-59
2021/07/26 14:04:17;;;;;;;8.13;5.40;;;;;;;;;;4387602;32;20234;-57
2021/07/26 14:06:43;;;;;;;7.28;6.12;;;;;;;;;;4387597;32;20300;-57
2021/07/26 14:09:08;;;;;;;5.95;4.80;;;;;;;;;;4386165;32;20234;-57
2021/07/26 14:11:37;;;;;;;6.82;4.90;;;;;;;;;;4387317;32;20282;-58
2021/07/26 14:14:03;;;;;;;9.13;5.32;;;;;;;;;;4387187;32;20571;-57
2021/07/26 14:16:29;;;;;;;8.88;5.72;;;;;;;;;;4387255;32;20287;-58
2021/07/26 14:18:56;;;;;;;8.40;5.97;;;;;;;;;;4387282;32;20226;-58
2021/07/26 14:21:21;;;;;;;9.05;6.03;;;;;;;;;;4386989;32;20378;-58
2021/07/26 14:23:47;;;;;;;8.68;5.45;;;;;;;;;;4387270;32;20234;-58
2021/07/26 14:26:12;;;;;;;11.90;6.72;;;;;;;;;;4386821;32;20626;-57
2021/07/26 14:28:38;;;;;;;6.65;4.60;;;;;;;;;;4387799;32;20345;-57
2021/07/26 14:31:03;;;;;;;15.63;6.60;;;;;;;;;;4388171;32;20279;-57
2021/07/26 14:33:29;;;;;;;7.78;5.22;;;;;;;;;;4389332;32;20242;-57
2021/07/26 14:35:54;;;;;;;8.60;5.72;;;;;;;;;;4389009;32;20318;-58
2021/07/26 14:38:20;;;;;;;9.13;5.43;;;;;;;;;;4389275;32;20608;-58
2021/07/26 14:40:46;;;;;;;9.50;5.72;;;;;;;;;;4389893;32;20314;-59
2021/07/26 14:43:12;;;;;;;10.75;5.72;;;;;;;;;;4389462;32;20226;-59
2021/07/26 14:45:37;;;;;;;9.02;5.78;;;;;;;;;;4389490;32;20602;-59